sensor_id;sensor_type;location;lat;lon;timestamp;P1;durP1;ratioP1;P2;durP2;ratioP2
47161;SDS011;32921;53.256;8.198;2022-12-07T00:00:54;44.42;;;16.58;;
47161;SDS011;32921;53.256;8.198;2022-12-07T00:03:28;51.95;;;16.58;;
47161;SDS011;32921;53.256;8.198;2022-12-07T00:05:56;48.72;;;16.25;;
47161;SDS011;32921;53.256;8.198;2022-12-07T00:08:22;51.28;;;17.13;;
47161;SDS011;32921;53.256;8.198;2022-12-07T00:10:48;48.78;;;16.23;;
47161;SDS011;32921;53.256;8.198;2022-12-07T00:13:13;53.28;;;16.88;;
47161;SDS011;32921;53.256;8.198;2022-12-07T00:15:39;52.53;;;17.00;;
47161;SDS011;32921;53.256;8.198;2022-12-07T00:18:04;43.25;;;15.45;;
47161;SDS011;32921;53.256;8.198;2022-12-07T00:20:30;45.92;;;13.90;;
47161;SDS011;32921;53.256;8.198;2022-12-07T00:22:56;43.72;;;13.77;;
47161;SDS011;32921;53.256;8.198;2022-12-07T00:25:21;45.22;;;14.05;;
47161;SDS011;32921;53.256;8.198;2022-12-07T00:27:47;37.28;;;12.95;;
47161;SDS011;32921;53.256;8.198;2022-12-07T00:30:12;41.20;;;12.55;;
47161;SDS011;32921;53.256;8.198;2022-12-07T00:32:38;30.85;;;11.25;;
47161;SDS011;32921;53.256;8.198;2022-12-07T00:35:04;32.80;;;9.52;;
47161;SDS011;32921;53.256;8.198;2022-12-07T00:37:30;27.00;;;8.40;;
47161;SDS011;32921;53.256;8.198;2022-12-07T00:39:55;31.10;;;8.63;;
47161;SDS011;32921;53.256;8.198;2022-12-07T00:42:21;30.33;;;8.75;;
47161;SDS011;32921;53.256;8.198;2022-12-07T00:44:46;30.08;;;7.55;;
47161;SDS011;32921;53.256;8.198;2022-12-07T00:47:12;22.20;;;7.18;;
47161;SDS011;32921;53.256;8.198;2022-12-07T00:49:37;23.92;;;7.57;;
47161;SDS011;32921;53.256;8.198;2022-12-07T00:52:03;31.95;;;8.27;;
47161;SDS011;32921;53.256;8.198;2022-12-07T00:54:29;30.30;;;7.85;;
47161;SDS011;32921;53.256;8.198;2022-12-07T00:56:54;32.47;;;8.65;;
47161;SDS011;32921;53.256;8.198;2022-12-07T00:59:20;22.85;;;7.55;;
47161;SDS011;32921;53.256;8.198;2022-12-07T01:01:45;29.38;;;7.88;;
47161;SDS011;32921;53.256;8.198;2022-12-07T01:04:11;28.30;;;8.93;;
47161;SDS011;32921;53.256;8.198;2022-12-07T01:06:36;32.35;;;8.30;;
47161;SDS011;32921;53.256;8.198;2022-12-07T01:09:03;33.50;;;8.95;;
47161;SDS011;32921;53.256;8.198;2022-12-07T01:11:30;29.05;;;8.30;;
47161;SDS011;32921;53.256;8.198;2022-12-07T01:13:57;26.67;;;7.57;;
47161;SDS011;32921;53.256;8.198;2022-12-07T01:16:24;27.60;;;8.30;;
47161;SDS011;32921;53.256;8.198;2022-12-07T01:18:51;26.25;;;7.93;;
47161;SDS011;32921;53.256;8.198;2022-12-07T01:21:36;29.10;;;8.43;;
47161;SDS011;32921;53.256;8.198;2022-12-07T01:24:04;29.05;;;7.90;;
47161;SDS011;32921;53.256;8.198;2022-12-07T01:26:31;31.02;;;7.85;;
47161;SDS011;32921;53.256;8.198;2022-12-07T01:28:57;30.80;;;7.93;;
47161;SDS011;32921;53.256;8.198;2022-12-07T01:31:24;25.35;;;7.57;;
47161;SDS011;32921;53.256;8.198;2022-12-07T01:33:58;19.65;;;7.15;;
47161;SDS011;32921;53.256;8.198;2022-12-07T01:36:26;23.48;;;6.53;;
47161;SDS011;32921;53.256;8.198;2022-12-07T01:39:00;25.65;;;7.22;;
47161;SDS011;32921;53.256;8.198;2022-12-07T01:41:29;23.90;;;7.95;;
47161;SDS011;32921;53.256;8.198;2022-12-07T01:46:49;29.75;;;8.15;;
47161;SDS011;32921;53.256;8.198;2022-12-07T01:49:22;29.23;;;8.77;;
47161;SDS011;32921;53.256;8.198;2022-12-07T01:54:53;28.45;;;8.88;;
47161;SDS011;32921;53.256;8.198;2022-12-07T01:57:22;40.65;;;9.38;;
47161;SDS011;32921;53.256;8.198;2022-12-07T01:59:48;27.35;;;9.20;;
47161;SDS011;32921;53.256;8.198;2022-12-07T02:02:35;23.48;;;9.00;;
47161;SDS011;32921;53.256;8.198;2022-12-07T02:05:03;32.20;;;9.95;;
47161;SDS011;32921;53.256;8.198;2022-12-07T02:07:30;41.35;;;10.25;;
47161;SDS011;32921;53.256;8.198;2022-12-07T02:10:16;26.30;;;9.25;;
47161;SDS011;32921;53.256;8.198;2022-12-07T02:12:47;24.13;;;7.65;;
47161;SDS011;32921;53.256;8.198;2022-12-07T02:15:15;24.65;;;7.72;;
47161;SDS011;32921;53.256;8.198;2022-12-07T02:26:02;31.95;;;10.82;;
47161;SDS011;32921;53.256;8.198;2022-12-07T02:31:33;37.20;;;12.70;;
47161;SDS011;32921;53.256;8.198;2022-12-07T02:34:07;38.97;;;12.90;;
47161;SDS011;32921;53.256;8.198;2022-12-07T02:36:40;38.40;;;12.32;;
47161;SDS011;32921;53.256;8.198;2022-12-07T02:41:44;40.33;;;12.70;;
47161;SDS011;32921;53.256;8.198;2022-12-07T02:44:14;41.22;;;12.68;;
47161;SDS011;32921;53.256;8.198;2022-12-07T02:46:44;44.53;;;12.63;;
47161;SDS011;32921;53.256;8.198;2022-12-07T02:49:22;36.65;;;12.43;;
47161;SDS011;32921;53.256;8.198;2022-12-07T02:51:49;34.92;;;12.40;;
47161;SDS011;32921;53.256;8.198;2022-12-07T02:54:16;37.83;;;12.48;;
47161;SDS011;32921;53.256;8.198;2022-12-07T02:56:46;41.95;;;12.90;;
47161;SDS011;32921;53.256;8.198;2022-12-07T03:02:28;38.50;;;13.75;;
47161;SDS011;32921;53.256;8.198;2022-12-07T03:08:00;34.28;;;12.15;;
47161;SDS011;32921;53.256;8.198;2022-12-07T03:10:38;27.50;;;10.43;;
47161;SDS011;32921;53.256;8.198;2022-12-07T03:13:42;31.25;;;9.13;;
47161;SDS011;32921;53.256;8.198;2022-12-07T03:21:47;26.30;;;8.38;;
47161;SDS011;32921;53.256;8.198;2022-12-07T03:24:18;26.55;;;8.73;;
47161;SDS011;32921;53.256;8.198;2022-12-07T03:27:09;27.63;;;9.05;;
47161;SDS011;32921;53.256;8.198;2022-12-07T03:29:37;25.92;;;8.93;;
47161;SDS011;32921;53.256;8.198;2022-12-07T03:32:15;32.47;;;8.77;;
47161;SDS011;32921;53.256;8.198;2022-12-07T03:34:56;26.05;;;7.90;;
47161;SDS011;32921;53.256;8.198;2022-12-07T03:37:42;37.35;;;8.68;;
47161;SDS011;32921;53.256;8.198;2022-12-07T03:43:04;22.60;;;7.70;;
47161;SDS011;32921;53.256;8.198;2022-12-07T03:45:40;20.05;;;7.70;;
47161;SDS011;32921;53.256;8.198;2022-12-07T03:50:50;21.58;;;7.05;;
47161;SDS011;32921;53.256;8.198;2022-12-07T03:53:26;30.17;;;7.85;;
47161;SDS011;32921;53.256;8.198;2022-12-07T03:55:58;27.63;;;8.20;;
47161;SDS011;32921;53.256;8.198;2022-12-07T03:58:25;28.02;;;7.38;;
47161;SDS011;32921;53.256;8.198;2022-12-07T04:00:51;30.60;;;7.18;;
47161;SDS011;32921;53.256;8.198;2022-12-07T04:03:17;30.77;;;7.53;;
47161;SDS011;32921;53.256;8.198;2022-12-07T04:05:43;26.05;;;6.18;;
47161;SDS011;32921;53.256;8.198;2022-12-07T04:08:09;23.15;;;5.43;;
47161;SDS011;32921;53.256;8.198;2022-12-07T04:10:35;19.23;;;4.70;;
47161;SDS011;32921;53.256;8.198;2022-12-07T04:13:00;152.27;;;9.27;;
47161;SDS011;32921;53.256;8.198;2022-12-07T04:15:26;17.33;;;3.85;;
47161;SDS011;32921;53.256;8.198;2022-12-07T04:17:51;14.80;;;3.47;;
47161;SDS011;32921;53.256;8.198;2022-12-07T04:20:17;13.98;;;3.42;;
47161;SDS011;32921;53.256;8.198;2022-12-07T04:22:43;16.17;;;3.60;;
47161;SDS011;32921;53.256;8.198;2022-12-07T04:25:08;34.92;;;2.63;;
47161;SDS011;32921;53.256;8.198;2022-12-07T04:27:34;11.70;;;1.70;;
47161;SDS011;32921;53.256;8.198;2022-12-07T04:30:00;12.10;;;1.98;;
47161;SDS011;32921;53.256;8.198;2022-12-07T04:32:25;17.23;;;2.05;;
47161;SDS011;32921;53.256;8.198;2022-12-07T04:34:51;7.80;;;1.25;;
47161;SDS011;32921;53.256;8.198;2022-12-07T04:37:16;10.90;;;1.45;;
47161;SDS011;32921;53.256;8.198;2022-12-07T04:39:42;9.10;;;1.35;;
47161;SDS011;32921;53.256;8.198;2022-12-07T04:42:10;13.15;;;1.48;;
47161;SDS011;32921;53.256;8.198;2022-12-07T04:44:36;12.60;;;1.77;;
47161;SDS011;32921;53.256;8.198;2022-12-07T04:47:01;12.90;;;1.42;;
47161;SDS011;32921;53.256;8.198;2022-12-07T04:49:27;56.70;;;3.17;;
47161;SDS011;32921;53.256;8.198;2022-12-07T04:51:52;47.83;;;2.25;;
47161;SDS011;32921;53.256;8.198;2022-12-07T04:54:18;36.60;;;2.13;;
47161;SDS011;32921;53.256;8.198;2022-12-07T04:56:44;10.10;;;1.52;;
47161;SDS011;32921;53.256;8.198;2022-12-07T04:59:10;8.23;;;1.40;;
47161;SDS011;32921;53.256;8.198;2022-12-07T05:01:37;10.13;;;1.10;;
47161;SDS011;32921;53.256;8.198;2022-12-07T05:04:03;13.35;;;2.30;;
47161;SDS011;32921;53.256;8.198;2022-12-07T05:06:29;10.32;;;1.55;;
47161;SDS011;32921;53.256;8.198;2022-12-07T05:08:55;6.65;;;1.30;;
47161;SDS011;32921;53.256;8.198;2022-12-07T05:11:20;16.30;;;1.73;;
47161;SDS011;32921;53.256;8.198;2022-12-07T05:14:11;51.00;;;3.97;;
47161;SDS011;32921;53.256;8.198;2022-12-07T05:16:45;9.73;;;0.95;;
47161;SDS011;32921;53.256;8.198;2022-12-07T05:19:12;7.30;;;0.88;;
47161;SDS011;32921;53.256;8.198;2022-12-07T05:21:38;45.25;;;3.20;;
47161;SDS011;32921;53.256;8.198;2022-12-07T05:24:04;12.90;;;1.20;;
47161;SDS011;32921;53.256;8.198;2022-12-07T05:26:30;66.38;;;3.13;;
47161;SDS011;32921;53.256;8.198;2022-12-07T05:28:56;13.13;;;1.50;;
47161;SDS011;32921;53.256;8.198;2022-12-07T05:31:23;8.05;;;1.90;;
47161;SDS011;32921;53.256;8.198;2022-12-07T05:33:50;15.20;;;2.22;;
47161;SDS011;32921;53.256;8.198;2022-12-07T05:36:15;18.67;;;2.08;;
47161;SDS011;32921;53.256;8.198;2022-12-07T05:38:41;12.20;;;1.67;;
47161;SDS011;32921;53.256;8.198;2022-12-07T05:41:07;12.77;;;2.22;;
47161;SDS011;32921;53.256;8.198;2022-12-07T05:43:56;8.35;;;1.77;;
47161;SDS011;32921;53.256;8.198;2022-12-07T05:46:22;11.93;;;1.40;;
47161;SDS011;32921;53.256;8.198;2022-12-07T05:48:47;11.80;;;1.83;;
47161;SDS011;32921;53.256;8.198;2022-12-07T05:51:13;82.55;;;4.93;;
47161;SDS011;32921;53.256;8.198;2022-12-07T05:53:38;12.52;;;1.65;;
47161;SDS011;32921;53.256;8.198;2022-12-07T05:56:04;26.73;;;2.85;;
47161;SDS011;32921;53.256;8.198;2022-12-07T05:58:30;11.80;;;1.90;;
47161;SDS011;32921;53.256;8.198;2022-12-07T06:01:14;17.48;;;2.15;;
47161;SDS011;32921;53.256;8.198;2022-12-07T06:03:39;19.83;;;2.75;;
47161;SDS011;32921;53.256;8.198;2022-12-07T06:06:05;77.80;;;4.90;;
47161;SDS011;32921;53.256;8.198;2022-12-07T06:08:30;13.32;;;2.17;;
47161;SDS011;32921;53.256;8.198;2022-12-07T06:10:56;16.38;;;2.45;;
47161;SDS011;32921;53.256;8.198;2022-12-07T06:13:40;17.02;;;3.20;;
47161;SDS011;32921;53.256;8.198;2022-12-07T06:16:06;19.45;;;3.45;;
47161;SDS011;32921;53.256;8.198;2022-12-07T06:18:32;23.52;;;4.35;;
47161;SDS011;32921;53.256;8.198;2022-12-07T06:20:58;24.20;;;3.42;;
47161;SDS011;32921;53.256;8.198;2022-12-07T06:23:23;22.73;;;2.50;;
47161;SDS011;32921;53.256;8.198;2022-12-07T06:25:49;22.00;;;2.47;;
47161;SDS011;32921;53.256;8.198;2022-12-07T06:28:14;18.25;;;2.40;;
47161;SDS011;32921;53.256;8.198;2022-12-07T06:30:40;11.68;;;2.20;;
47161;SDS011;32921;53.256;8.198;2022-12-07T06:33:05;22.52;;;2.50;;
47161;SDS011;32921;53.256;8.198;2022-12-07T06:35:32;26.65;;;2.47;;
47161;SDS011;32921;53.256;8.198;2022-12-07T06:37:58;14.05;;;1.67;;
47161;SDS011;32921;53.256;8.198;2022-12-07T06:40:23;16.05;;;2.50;;
47161;SDS011;32921;53.256;8.198;2022-12-07T06:42:49;12.68;;;1.77;;
47161;SDS011;32921;53.256;8.198;2022-12-07T06:45:15;8.90;;;1.42;;
47161;SDS011;32921;53.256;8.198;2022-12-07T06:47:40;10.88;;;1.95;;
47161;SDS011;32921;53.256;8.198;2022-12-07T06:50:06;13.95;;;2.00;;
47161;SDS011;32921;53.256;8.198;2022-12-07T06:52:32;11.90;;;1.38;;
47161;SDS011;32921;53.256;8.198;2022-12-07T06:54:58;14.73;;;1.58;;
47161;SDS011;32921;53.256;8.198;2022-12-07T06:57:24;15.35;;;1.45;;
47161;SDS011;32921;53.256;8.198;2022-12-07T06:59:50;240.52;;;10.90;;
47161;SDS011;32921;53.256;8.198;2022-12-07T07:02:15;11.50;;;1.30;;
47161;SDS011;32921;53.256;8.198;2022-12-07T07:04:41;10.93;;;1.60;;
47161;SDS011;32921;53.256;8.198;2022-12-07T07:07:07;329.48;;;15.48;;
47161;SDS011;32921;53.256;8.198;2022-12-07T07:09:33;11.63;;;2.20;;
47161;SDS011;32921;53.256;8.198;2022-12-07T07:11:58;15.68;;;3.08;;
47161;SDS011;32921;53.256;8.198;2022-12-07T07:14:24;13.82;;;1.50;;
47161;SDS011;32921;53.256;8.198;2022-12-07T07:16:49;13.38;;;1.88;;
47161;SDS011;32921;53.256;8.198;2022-12-07T07:19:15;17.50;;;1.83;;
47161;SDS011;32921;53.256;8.198;2022-12-07T07:21:40;19.83;;;2.13;;
47161;SDS011;32921;53.256;8.198;2022-12-07T07:24:06;12.95;;;1.60;;
47161;SDS011;32921;53.256;8.198;2022-12-07T07:26:32;71.57;;;4.20;;
47161;SDS011;32921;53.256;8.198;2022-12-07T07:28:57;18.67;;;1.83;;
47161;SDS011;32921;53.256;8.198;2022-12-07T07:31:23;32.35;;;2.63;;
47161;SDS011;32921;53.256;8.198;2022-12-07T07:33:48;10.60;;;1.98;;
47161;SDS011;32921;53.256;8.198;2022-12-07T07:36:14;41.72;;;9.88;;
47161;SDS011;32921;53.256;8.198;2022-12-07T07:38:39;14.20;;;3.20;;
47161;SDS011;32921;53.256;8.198;2022-12-07T07:41:05;199.23;;;9.98;;
47161;SDS011;32921;53.256;8.198;2022-12-07T07:43:30;14.68;;;2.53;;
47161;SDS011;32921;53.256;8.198;2022-12-07T07:45:57;10.70;;;2.35;;
47161;SDS011;32921;53.256;8.198;2022-12-07T07:48:23;11.55;;;1.90;;
47161;SDS011;32921;53.256;8.198;2022-12-07T07:50:50;11.07;;;2.13;;
47161;SDS011;32921;53.256;8.198;2022-12-07T07:53:16;11.07;;;1.70;;
47161;SDS011;32921;53.256;8.198;2022-12-07T07:55:41;8.00;;;1.90;;
47161;SDS011;32921;53.256;8.198;2022-12-07T07:58:14;100.70;;;6.07;;
47161;SDS011;32921;53.256;8.198;2022-12-07T08:00:40;11.55;;;1.90;;
47161;SDS011;32921;53.256;8.198;2022-12-07T08:03:05;35.85;;;3.10;;
47161;SDS011;32921;53.256;8.198;2022-12-07T08:05:31;61.35;;;4.32;;
47161;SDS011;32921;53.256;8.198;2022-12-07T08:07:57;18.42;;;3.13;;
47161;SDS011;32921;53.256;8.198;2022-12-07T08:10:22;10.90;;;3.13;;
47161;SDS011;32921;53.256;8.198;2022-12-07T08:12:48;10.55;;;3.00;;
47161;SDS011;32921;53.256;8.198;2022-12-07T08:15:32;13.55;;;2.63;;
47161;SDS011;32921;53.256;8.198;2022-12-07T08:17:58;18.90;;;3.05;;
47161;SDS011;32921;53.256;8.198;2022-12-07T08:20:23;20.33;;;3.33;;
47161;SDS011;32921;53.256;8.198;2022-12-07T08:22:49;12.88;;;2.67;;
47161;SDS011;32921;53.256;8.198;2022-12-07T08:25:15;19.85;;;4.75;;
47161;SDS011;32921;53.256;8.198;2022-12-07T08:27:41;13.85;;;3.28;;
47161;SDS011;32921;53.256;8.198;2022-12-07T08:30:06;18.50;;;3.35;;
47161;SDS011;32921;53.256;8.198;2022-12-07T08:32:32;14.98;;;3.13;;
47161;SDS011;32921;53.256;8.198;2022-12-07T08:34:58;13.85;;;2.65;;
47161;SDS011;32921;53.256;8.198;2022-12-07T08:37:23;15.95;;;2.85;;
47161;SDS011;32921;53.256;8.198;2022-12-07T08:39:49;16.45;;;3.17;;
47161;SDS011;32921;53.256;8.198;2022-12-07T08:42:14;15.98;;;3.22;;
47161;SDS011;32921;53.256;8.198;2022-12-07T08:44:40;20.63;;;3.50;;
47161;SDS011;32921;53.256;8.198;2022-12-07T08:47:05;13.73;;;2.60;;
47161;SDS011;32921;53.256;8.198;2022-12-07T08:49:34;85.15;;;6.75;;
47161;SDS011;32921;53.256;8.198;2022-12-07T08:52:04;15.95;;;3.05;;
47161;SDS011;32921;53.256;8.198;2022-12-07T08:54:30;15.90;;;3.17;;
47161;SDS011;32921;53.256;8.198;2022-12-07T08:56:59;79.50;;;5.70;;
47161;SDS011;32921;53.256;8.198;2022-12-07T08:59:24;17.35;;;3.67;;
47161;SDS011;32921;53.256;8.198;2022-12-07T09:01:51;16.08;;;2.72;;
47161;SDS011;32921;53.256;8.198;2022-12-07T09:04:16;18.58;;;3.22;;
47161;SDS011;32921;53.256;8.198;2022-12-07T09:06:42;15.48;;;2.97;;
47161;SDS011;32921;53.256;8.198;2022-12-07T09:09:08;25.17;;;3.83;;
47161;SDS011;32921;53.256;8.198;2022-12-07T09:11:35;21.90;;;3.78;;
47161;SDS011;32921;53.256;8.198;2022-12-07T09:14:00;17.17;;;3.50;;
47161;SDS011;32921;53.256;8.198;2022-12-07T09:16:26;12.07;;;3.15;;
47161;SDS011;32921;53.256;8.198;2022-12-07T09:18:52;19.02;;;4.10;;
47161;SDS011;32921;53.256;8.198;2022-12-07T09:21:17;13.45;;;3.17;;
47161;SDS011;32921;53.256;8.198;2022-12-07T09:23:43;20.60;;;3.38;;
47161;SDS011;32921;53.256;8.198;2022-12-07T09:26:08;34.67;;;4.47;;
47161;SDS011;32921;53.256;8.198;2022-12-07T09:28:34;13.98;;;3.17;;
47161;SDS011;32921;53.256;8.198;2022-12-07T09:30:59;17.48;;;3.55;;
47161;SDS011;32921;53.256;8.198;2022-12-07T09:33:25;17.48;;;3.58;;
47161;SDS011;32921;53.256;8.198;2022-12-07T09:35:51;19.05;;;3.45;;
47161;SDS011;32921;53.256;8.198;2022-12-07T09:38:17;9.05;;;2.30;;
47161;SDS011;32921;53.256;8.198;2022-12-07T09:40:44;17.05;;;3.17;;
47161;SDS011;32921;53.256;8.198;2022-12-07T09:43:14;17.70;;;3.40;;
47161;SDS011;32921;53.256;8.198;2022-12-07T09:45:45;13.15;;;2.53;;
47161;SDS011;32921;53.256;8.198;2022-12-07T09:48:17;9.95;;;2.58;;
47161;SDS011;32921;53.256;8.198;2022-12-07T09:50:44;16.38;;;3.10;;
47161;SDS011;32921;53.256;8.198;2022-12-07T09:53:18;17.80;;;2.80;;
47161;SDS011;32921;53.256;8.198;2022-12-07T09:55:50;16.70;;;2.97;;
47161;SDS011;32921;53.256;8.198;2022-12-07T09:58:20;11.63;;;2.80;;
47161;SDS011;32921;53.256;8.198;2022-12-07T10:00:53;13.15;;;2.70;;
47161;SDS011;32921;53.256;8.198;2022-12-07T10:03:21;14.90;;;2.33;;
47161;SDS011;32921;53.256;8.198;2022-12-07T10:05:48;16.95;;;2.42;;
47161;SDS011;32921;53.256;8.198;2022-12-07T10:08:16;13.57;;;2.30;;
47161;SDS011;32921;53.256;8.198;2022-12-07T10:10:42;11.07;;;2.13;;
47161;SDS011;32921;53.256;8.198;2022-12-07T10:13:14;9.73;;;2.30;;
47161;SDS011;32921;53.256;8.198;2022-12-07T10:15:51;10.18;;;2.08;;
47161;SDS011;32921;53.256;8.198;2022-12-07T10:18:29;12.98;;;2.25;;
47161;SDS011;32921;53.256;8.198;2022-12-07T10:23:28;10.02;;;1.77;;
47161;SDS011;32921;53.256;8.198;2022-12-07T10:25:54;14.48;;;1.73;;
47161;SDS011;32921;53.256;8.198;2022-12-07T10:28:20;7.88;;;1.25;;
47161;SDS011;32921;53.256;8.198;2022-12-07T10:30:51;12.68;;;2.85;;
47161;SDS011;32921;53.256;8.198;2022-12-07T10:39:11;10.10;;;1.55;;
47161;SDS011;32921;53.256;8.198;2022-12-07T10:41:55;7.75;;;1.30;;
47161;SDS011;32921;53.256;8.198;2022-12-07T10:44:27;10.95;;;1.73;;
47161;SDS011;32921;53.256;8.198;2022-12-07T10:52:38;8.80;;;1.58;;
47161;SDS011;32921;53.256;8.198;2022-12-07T10:55:26;8.80;;;1.67;;
47161;SDS011;32921;53.256;8.198;2022-12-07T10:58:31;7.22;;;1.15;;
47161;SDS011;32921;53.256;8.198;2022-12-07T11:01:32;8.38;;;1.75;;
47161;SDS011;32921;53.256;8.198;2022-12-07T11:04:21;8.00;;;1.70;;
47161;SDS011;32921;53.256;8.198;2022-12-07T11:07:19;8.10;;;1.50;;
47161;SDS011;32921;53.256;8.198;2022-12-07T11:10:14;4.22;;;1.33;;
47161;SDS011;32921;53.256;8.198;2022-12-07T11:12:55;8.75;;;1.33;;
47161;SDS011;32921;53.256;8.198;2022-12-07T11:16:01;9.30;;;1.45;;
47161;SDS011;32921;53.256;8.198;2022-12-07T11:21:17;8.65;;;1.30;;
47161;SDS011;32921;53.256;8.198;2022-12-07T11:23:55;13.50;;;1.85;;
47161;SDS011;32921;53.256;8.198;2022-12-07T11:29:36;6.60;;;1.60;;
47161;SDS011;32921;53.256;8.198;2022-12-07T11:37:49;19.45;;;3.83;;
47161;SDS011;32921;53.256;8.198;2022-12-07T11:40:21;13.93;;;3.65;;
47161;SDS011;32921;53.256;8.198;2022-12-07T11:43:12;8.77;;;1.80;;
47161;SDS011;32921;53.256;8.198;2022-12-07T11:46:12;9.52;;;2.33;;
47161;SDS011;32921;53.256;8.198;2022-12-07T11:48:49;10.13;;;1.80;;
47161;SDS011;32921;53.256;8.198;2022-12-07T11:51:27;10.68;;;1.60;;
47161;SDS011;32921;53.256;8.198;2022-12-07T11:54:11;10.95;;;1.70;;
47161;SDS011;32921;53.256;8.198;2022-12-07T11:56:41;15.35;;;1.90;;
47161;SDS011;32921;53.256;8.198;2022-12-07T12:04:23;14.40;;;2.25;;
47161;SDS011;32921;53.256;8.198;2022-12-07T12:06:57;11.05;;;1.80;;
47161;SDS011;32921;53.256;8.198;2022-12-07T12:09:29;16.77;;;2.00;;
47161;SDS011;32921;53.256;8.198;2022-12-07T12:17:27;13.15;;;1.60;;
47161;SDS011;32921;53.256;8.198;2022-12-07T12:22:58;10.63;;;1.50;;
47161;SDS011;32921;53.256;8.198;2022-12-07T12:25:36;12.75;;;2.88;;
47161;SDS011;32921;53.256;8.198;2022-12-07T12:28:18;9.13;;;1.73;;
47161;SDS011;32921;53.256;8.198;2022-12-07T12:33:38;16.58;;;2.60;;
47161;SDS011;32921;53.256;8.198;2022-12-07T12:36:18;7.90;;;1.45;;
47161;SDS011;32921;53.256;8.198;2022-12-07T12:46:50;10.85;;;1.33;;
47161;SDS011;32921;53.256;8.198;2022-12-07T12:51:54;15.35;;;1.77;;
47161;SDS011;32921;53.256;8.198;2022-12-07T12:54:29;12.30;;;2.45;;
47161;SDS011;32921;53.256;8.198;2022-12-07T12:57:00;12.48;;;2.25;;
47161;SDS011;32921;53.256;8.198;2022-12-07T13:00:20;9.13;;;1.58;;
47161;SDS011;32921;53.256;8.198;2022-12-07T13:02:29;9.77;;;1.88;;
47161;SDS011;32921;53.256;8.198;2022-12-07T13:15:36;9.32;;;1.90;;
47161;SDS011;32921;53.256;8.198;2022-12-07T13:26:13;7.95;;;1.42;;
47161;SDS011;32921;53.256;8.198;2022-12-07T13:28:44;5.85;;;1.48;;
47161;SDS011;32921;53.256;8.198;2022-12-07T13:31:28;10.30;;;1.50;;
47161;SDS011;32921;53.256;8.198;2022-12-07T13:34:04;5.47;;;0.80;;
47161;SDS011;32921;53.256;8.198;2022-12-07T13:36:50;7.57;;;1.20;;
47161;SDS011;32921;53.256;8.198;2022-12-07T13:39:21;8.90;;;1.30;;
47161;SDS011;32921;53.256;8.198;2022-12-07T13:41:52;4.85;;;1.10;;
47161;SDS011;32921;53.256;8.198;2022-12-07T13:44:22;9.13;;;1.73;;
47161;SDS011;32921;53.256;8.198;2022-12-07T13:46:53;12.50;;;1.10;;
47161;SDS011;32921;53.256;8.198;2022-12-07T13:49:38;9.80;;;1.70;;
47161;SDS011;32921;53.256;8.198;2022-12-07T13:52:19;11.00;;;1.40;;
47161;SDS011;32921;53.256;8.198;2022-12-07T13:54:55;8.85;;;1.55;;
47161;SDS011;32921;53.256;8.198;2022-12-07T13:57:31;7.45;;;1.45;;
47161;SDS011;32921;53.256;8.198;2022-12-07T14:00:00;8.90;;;1.38;;
47161;SDS011;32921;53.256;8.198;2022-12-07T14:02:31;6.00;;;1.10;;
47161;SDS011;32921;53.256;8.198;2022-12-07T14:05:13;9.65;;;1.88;;
47161;SDS011;32921;53.256;8.198;2022-12-07T14:07:57;9.75;;;2.40;;
47161;SDS011;32921;53.256;8.198;2022-12-07T14:10:34;9.00;;;1.48;;
47161;SDS011;32921;53.256;8.198;2022-12-07T14:15:52;11.65;;;1.75;;
47161;SDS011;32921;53.256;8.198;2022-12-07T14:18:25;9.70;;;1.52;;
47161;SDS011;32921;53.256;8.198;2022-12-07T14:23:42;10.25;;;1.88;;
47161;SDS011;32921;53.256;8.198;2022-12-07T14:26:15;9.70;;;1.63;;
47161;SDS011;32921;53.256;8.198;2022-12-07T14:28:44;11.65;;;3.28;;
47161;SDS011;32921;53.256;8.198;2022-12-07T14:31:15;10.60;;;3.22;;
47161;SDS011;32921;53.256;8.198;2022-12-07T14:33:42;15.07;;;2.33;;
47161;SDS011;32921;53.256;8.198;2022-12-07T14:36:13;11.00;;;1.80;;
47161;SDS011;32921;53.256;8.198;2022-12-07T14:38:40;10.68;;;1.23;;
47161;SDS011;32921;53.256;8.198;2022-12-07T14:41:06;14.25;;;1.50;;
47161;SDS011;32921;53.256;8.198;2022-12-07T14:46:24;9.65;;;1.00;;
47161;SDS011;32921;53.256;8.198;2022-12-07T14:48:49;13.18;;;1.35;;
47161;SDS011;32921;53.256;8.198;2022-12-07T14:51:15;8.13;;;2.20;;
47161;SDS011;32921;53.256;8.198;2022-12-07T14:53:45;10.93;;;1.35;;
47161;SDS011;32921;53.256;8.198;2022-12-07T14:56:14;11.85;;;1.98;;
47161;SDS011;32921;53.256;8.198;2022-12-07T14:58:39;10.10;;;3.90;;
47161;SDS011;32921;53.256;8.198;2022-12-07T15:01:05;9.70;;;1.63;;
47161;SDS011;32921;53.256;8.198;2022-12-07T15:03:31;6.35;;;1.55;;
47161;SDS011;32921;53.256;8.198;2022-12-07T15:05:56;8.30;;;1.30;;
47161;SDS011;32921;53.256;8.198;2022-12-07T15:08:22;7.20;;;0.90;;
47161;SDS011;32921;53.256;8.198;2022-12-07T15:10:48;9.18;;;1.65;;
47161;SDS011;32921;53.256;8.198;2022-12-07T15:13:14;9.13;;;1.15;;
47161;SDS011;32921;53.256;8.198;2022-12-07T15:15:59;5.22;;;1.10;;
47161;SDS011;32921;53.256;8.198;2022-12-07T15:18:24;13.73;;;1.58;;
47161;SDS011;32921;53.256;8.198;2022-12-07T15:20:50;5.72;;;1.05;;
47161;SDS011;32921;53.256;8.198;2022-12-07T15:23:16;8.82;;;1.00;;
47161;SDS011;32921;53.256;8.198;2022-12-07T15:25:43;6.18;;;0.93;;
47161;SDS011;32921;53.256;8.198;2022-12-07T15:28:10;10.07;;;2.30;;
47161;SDS011;32921;53.256;8.198;2022-12-07T15:30:39;15.88;;;6.20;;
47161;SDS011;32921;53.256;8.198;2022-12-07T15:33:07;15.50;;;6.45;;
47161;SDS011;32921;53.256;8.198;2022-12-07T15:35:33;21.65;;;7.90;;
47161;SDS011;32921;53.256;8.198;2022-12-07T15:38:02;23.60;;;9.30;;
47161;SDS011;32921;53.256;8.198;2022-12-07T15:40:31;18.60;;;5.72;;
47161;SDS011;32921;53.256;8.198;2022-12-07T15:42:56;14.27;;;4.53;;
47161;SDS011;32921;53.256;8.198;2022-12-07T15:45:22;19.95;;;4.90;;
47161;SDS011;32921;53.256;8.198;2022-12-07T15:47:47;12.65;;;2.60;;
47161;SDS011;32921;53.256;8.198;2022-12-07T15:50:13;14.45;;;2.53;;
47161;SDS011;32921;53.256;8.198;2022-12-07T15:52:40;12.75;;;2.63;;
47161;SDS011;32921;53.256;8.198;2022-12-07T15:55:06;11.18;;;1.98;;
47161;SDS011;32921;53.256;8.198;2022-12-07T15:57:32;13.43;;;2.53;;
47161;SDS011;32921;53.256;8.198;2022-12-07T16:00:00;16.45;;;3.45;;
47161;SDS011;32921;53.256;8.198;2022-12-07T16:02:26;14.40;;;2.97;;
47161;SDS011;32921;53.256;8.198;2022-12-07T16:04:52;13.48;;;3.20;;
47161;SDS011;32921;53.256;8.198;2022-12-07T16:07:18;5.97;;;1.50;;
47161;SDS011;32921;53.256;8.198;2022-12-07T16:09:44;1.95;;;0.75;;
47161;SDS011;32921;53.256;8.198;2022-12-07T16:12:11;5.10;;;0.60;;
47161;SDS011;32921;53.256;8.198;2022-12-07T16:14:38;1.13;;;0.40;;
47161;SDS011;32921;53.256;8.198;2022-12-07T16:17:04;5.53;;;1.52;;
47161;SDS011;32921;53.256;8.198;2022-12-07T16:19:30;5.38;;;1.10;;
47161;SDS011;32921;53.256;8.198;2022-12-07T16:21:56;36.53;;;2.88;;
47161;SDS011;32921;53.256;8.198;2022-12-07T16:24:22;12.68;;;4.93;;
47161;SDS011;32921;53.256;8.198;2022-12-07T16:26:48;19.30;;;8.05;;
47161;SDS011;32921;53.256;8.198;2022-12-07T16:29:14;6.53;;;1.92;;
47161;SDS011;32921;53.256;8.198;2022-12-07T16:31:40;2.63;;;0.80;;
47161;SDS011;32921;53.256;8.198;2022-12-07T16:34:06;5.43;;;1.95;;
47161;SDS011;32921;53.256;8.198;2022-12-07T16:36:33;7.15;;;4.07;;
47161;SDS011;32921;53.256;8.198;2022-12-07T16:38:59;5.57;;;2.75;;
47161;SDS011;32921;53.256;8.198;2022-12-07T16:41:26;6.45;;;2.88;;
47161;SDS011;32921;53.256;8.198;2022-12-07T16:43:51;3.88;;;1.58;;
47161;SDS011;32921;53.256;8.198;2022-12-07T16:46:17;7.63;;;3.38;;